Time;durP1;ratioP1;P1;durP2;ratioP2;P2;SDS_P1;SDS_P2;PMS_P1;PMS_P2;Temp;Humidity;BMP_temperature;BMP_pressure;BME280_temperature;BME280_humidity;BME280_pressure;Samples;Min_cycle;Max_cycle;Signal;HPM_P1;HPM_P2
2021/06/29 00:00:19;;;;;;;1.75;0.80;;;;;;;;;;6928002;28;20073;-93
2021/06/29 00:03:40;;;;;;;2.28;1.00;;;;;;;;;;6945546;28;20058;-93
2021/06/29 00:07:00;;;;;;;1.05;0.90;;;;;;;;;;6910395;28;20132;-95
2021/06/29 00:10:22;;;;;;;3.75;1.38;;;;;;;;;;6915001;28;20127;-95
2021/06/29 00:13:44;;;;;;;1.55;1.10;;;;;;;;;;6922204;28;20537;-94
2021/06/29 00:17:05;;;;;;;1.85;0.80;;;;;;;;;;6919009;28;20061;-93
2021/06/29 00:20:25;;;;;;;1.58;0.90;;;;;;;;;;6936475;28;20049;-93
2021/06/29 00:23:46;;;;;;;1.33;0.90;;;;;;;;;;6942941;28;20493;-93
2021/06/29 00:27:07;;;;;;;2.30;0.90;;;;;;;;;;6941576;28;20126;-93
2021/06/29 00:30:27;;;;;;;1.85;0.88;;;;;;;;;;6934312;28;20045;-93
2021/06/29 00:33:49;;;;;;;1.17;0.90;;;;;;;;;;6934229;28;20045;-93
2021/06/29 00:37:09;;;;;;;3.05;1.23;;;;;;;;;;6900103;28;20054;-93
2021/06/29 00:40:31;;;;;;;2.53;0.85;;;;;;;;;;6967889;28;20068;-94
2021/06/29 00:43:53;;;;;;;0.82;0.80;;;;;;;;;;6944802;28;20466;-94
2021/06/29 00:47:13;;;;;;;2.60;1.10;;;;;;;;;;6970503;28;20125;-94
2021/06/29 00:50:35;;;;;;;0.70;0.70;;;;;;;;;;6950340;28;20088;-94
2021/06/29 00:53:55;;;;;;;3.88;0.90;;;;;;;;;;6916686;28;20045;-95
2021/06/29 00:57:18;;;;;;;1.70;0.80;;;;;;;;;;6922793;28;20641;-94
2021/06/29 01:00:41;;;;;;;3.67;1.10;;;;;;;;;;6934813;28;20045;-93
2021/06/29 01:04:02;;;;;;;3.75;0.90;;;;;;;;;;6925719;28;20126;-95
2021/06/29 01:07:22;;;;;;;0.90;0.75;;;;;;;;;;6938715;28;20411;-95
2021/06/29 01:10:43;;;;;;;6.88;1.20;;;;;;;;;;6926762;28;20100;-95
2021/06/29 01:14:14;;;;;;;2.38;0.93;;;;;;;;;;6915824;28;20491;-94
2021/06/29 01:17:34;;;;;;;3.80;0.80;;;;;;;;;;6919658;28;20043;-95
2021/06/29 01:20:56;;;;;;;2.13;1.20;;;;;;;;;;6936034;28;20479;-95
2021/06/29 01:24:22;;;;;;;3.13;1.13;;;;;;;;;;6930046;28;20049;-96
2021/06/29 01:31:09;;;;;;;2.20;1.10;;;;;;;;;;6963469;28;20212;-95
2021/06/29 01:34:29;;;;;;;1.30;0.80;;;;;;;;;;6943144;28;20048;-96
2021/06/29 01:37:51;;;;;;;2.90;1.17;;;;;;;;;;6922896;28;20083;-96
2021/06/29 01:41:14;;;;;;;1.20;0.93;;;;;;;;;;6941818;28;20040;-95
2021/06/29 01:44:35;;;;;;;2.58;1.10;;;;;;;;;;6947156;28;20047;-95
2021/06/29 01:47:57;;;;;;;1.77;0.88;;;;;;;;;;6964864;28;20110;-96
2021/06/29 01:51:19;;;;;;;1.00;0.95;;;;;;;;;;6934968;28;20064;-95
2021/06/29 01:55:08;;;;;;;2.03;1.00;;;;;;;;;;6928964;28;20505;-93
2021/06/29 01:58:30;;;;;;;2.55;1.00;;;;;;;;;;6919372;28;20044;-95
2021/06/29 02:01:51;;;;;;;2.92;1.00;;;;;;;;;;6934214;28;20063;-96
2021/06/29 02:05:11;;;;;;;1.25;0.70;;;;;;;;;;6935152;28;20056;-96
2021/06/29 02:08:32;;;;;;;0.95;0.80;;;;;;;;;;6955236;28;20442;-96
2021/06/29 02:11:52;;;;;;;0.80;0.80;;;;;;;;;;6962070;28;20052;-96
2021/06/29 02:15:13;;;;;;;1.98;0.90;;;;;;;;;;6950452;28;20049;-95
2021/06/29 02:18:33;;;;;;;0.95;0.85;;;;;;;;;;6933928;28;20056;-95
2021/06/29 02:21:54;;;;;;;0.90;0.80;;;;;;;;;;6959663;28;20055;-96
2021/06/29 02:25:14;;;;;;;1.02;0.80;;;;;;;;;;6934645;28;20059;-95
2021/06/29 02:28:36;;;;;;;0.93;0.88;;;;;;;;;;6923655;28;20048;-95
2021/06/29 02:31:56;;;;;;;2.45;0.80;;;;;;;;;;6933468;28;20060;-96
2021/06/29 02:35:17;;;;;;;0.85;0.77;;;;;;;;;;6950483;28;20061;-96
2021/06/29 02:38:37;;;;;;;0.75;0.75;;;;;;;;;;6933929;28;20052;-96
2021/06/29 02:41:58;;;;;;;1.48;0.80;;;;;;;;;;6920099;28;20056;-96
2021/06/29 02:45:20;;;;;;;1.40;0.90;;;;;;;;;;6934453;28;20049;-96
2021/06/29 02:48:40;;;;;;;1.55;1.20;;;;;;;;;;6934389;28;20088;-96
2021/06/29 02:52:01;;;;;;;1.35;0.90;;;;;;;;;;6949775;28;20414;-96
2021/06/29 02:55:22;;;;;;;1.35;0.93;;;;;;;;;;6943671;28;20053;-96
2021/06/29 02:58:42;;;;;;;1.67;0.93;;;;;;;;;;6923892;28;20045;-95
2021/06/29 03:02:03;;;;;;;2.13;0.93;;;;;;;;;;6939426;28;20049;-94
2021/06/29 03:05:23;;;;;;;1.00;0.90;;;;;;;;;;6944456;28;20128;-96
2021/06/29 03:08:44;;;;;;;1.95;0.90;;;;;;;;;;6938641;28;20505;-96
2021/06/29 03:12:06;;;;;;;1.05;0.80;;;;;;;;;;6929362;28;20117;-95
2021/06/29 03:15:27;;;;;;;1.10;0.90;;;;;;;;;;6929712;28;20056;-96
2021/06/29 03:18:48;;;;;;;1.30;0.90;;;;;;;;;;6938779;28;20051;-96
2021/06/29 03:22:08;;;;;;;1.60;0.90;;;;;;;;;;6955516;28;20056;-96
2021/06/29 03:25:29;;;;;;;1.00;0.88;;;;;;;;;;6929266;28;20516;-95
2021/06/29 03:28:49;;;;;;;0.95;0.88;;;;;;;;;;6938120;28;20147;-94
2021/06/29 03:32:10;;;;;;;1.10;1.00;;;;;;;;;;6927154;28;20049;-95
2021/06/29 03:35:30;;;;;;;1.58;1.23;;;;;;;;;;6926331;28;20042;-94
2021/06/29 03:38:51;;;;;;;1.42;0.90;;;;;;;;;;6936878;28;20137;-95
2021/06/29 03:42:11;;;;;;;1.10;0.90;;;;;;;;;;6934007;28;20045;-93
2021/06/29 03:45:32;;;;;;;1.52;1.05;;;;;;;;;;6925032;28;20049;-93
2021/06/29 03:48:52;;;;;;;0.82;0.82;;;;;;;;;;6953711;28;20045;-94
2021/06/29 03:52:13;;;;;;;0.85;0.85;;;;;;;;;;6952610;28;20064;-93
2021/06/29 03:55:34;;;;;;;1.38;0.88;;;;;;;;;;6936640;28;20131;-92
2021/06/29 03:58:57;;;;;;;1.33;1.08;;;;;;;;;;6966279;28;20483;-94
2021/06/29 04:02:18;;;;;;;1.75;1.10;;;;;;;;;;6946766;28;20053;-93
2021/06/29 04:05:38;;;;;;;0.80;0.80;;;;;;;;;;6938136;28;20037;-95
2021/06/29 04:08:59;;;;;;;1.00;0.95;;;;;;;;;;6951841;28;20055;-94
2021/06/29 04:16:57;;;;;;;2.47;1.10;;;;;;;;;;6963662;28;20111;-93
2021/06/29 04:20:17;;;;;;;1.70;0.90;;;;;;;;;;6935796;28;20445;-94
2021/06/29 04:23:42;;;;;;;1.08;0.93;;;;;;;;;;6936383;28;20060;-94
2021/06/29 04:27:04;;;;;;;1.80;1.00;;;;;;;;;;6956106;28;20124;-93
2021/06/29 04:30:25;;;;;;;1.50;0.90;;;;;;;;;;6919269;28;20054;-96
2021/06/29 04:33:45;;;;;;;1.08;0.98;;;;;;;;;;6936919;28;20103;-96
2021/06/29 04:37:07;;;;;;;2.83;0.90;;;;;;;;;;6937450;28;20041;-96
2021/06/29 04:40:28;;;;;;;0.95;0.85;;;;;;;;;;6936352;28;20053;-96
2021/06/29 04:43:49;;;;;;;1.17;0.82;;;;;;;;;;6935943;28;20136;-96
2021/06/29 04:54:51;;;;;;;0.93;0.80;;;;;;;;;;8029944;22;20101;-93
2021/06/29 04:58:11;;;;;;;1.38;1.02;;;;;;;;;;6894126;28;20136;-94
2021/06/29 05:01:31;;;;;;;0.95;0.90;;;;;;;;;;6876288;28;20052;-94
2021/06/29 05:04:52;;;;;;;2.05;0.90;;;;;;;;;;6893500;28;20056;-93
2021/06/29 05:22:07;;;;;;;3.72;0.88;;;;;;;;;;6907620;28;20451;-92
2021/06/29 05:25:28;;;;;;;1.33;0.75;;;;;;;;;;6910040;28;20045;-90
2021/06/29 05:28:49;;;;;;;0.93;0.90;;;;;;;;;;6903721;28;20057;-88
2021/06/29 05:32:10;;;;;;;1.02;0.90;;;;;;;;;;6914268;28;20128;-92
2021/06/29 05:35:30;;;;;;;1.08;0.90;;;;;;;;;;6881075;28;20093;-89
2021/06/29 05:38:50;;;;;;;1.45;1.02;;;;;;;;;;6889964;28;20115;-88
2021/06/29 05:42:11;;;;;;;1.25;0.88;;;;;;;;;;6867512;28;20054;-90
2021/06/29 05:45:32;;;;;;;2.00;1.08;;;;;;;;;;6880948;28;20056;-89
2021/06/29 05:48:53;;;;;;;0.90;0.80;;;;;;;;;;6918904;28;20045;-87
2021/06/29 05:52:13;;;;;;;1.48;0.77;;;;;;;;;;6897946;28;20052;-89
2021/06/29 05:55:34;;;;;;;1.38;1.13;;;;;;;;;;6911963;28;20086;-90
2021/06/29 05:58:54;;;;;;;1.45;0.90;;;;;;;;;;6892433;28;20057;-89
2021/06/29 06:02:16;;;;;;;1.02;0.98;;;;;;;;;;6920230;28;20088;-91
2021/06/29 06:05:36;;;;;;;2.45;1.00;;;;;;;;;;6886495;28;20068;-90
2021/06/29 06:08:57;;;;;;;1.10;1.00;;;;;;;;;;6908424;28;20093;-87
2021/06/29 06:12:20;;;;;;;3.00;0.98;;;;;;;;;;6893009;28;20085;-89
2021/06/29 06:15:41;;;;;;;1.13;0.93;;;;;;;;;;6892343;28;20152;-88
2021/06/29 06:19:02;;;;;;;0.90;0.90;;;;;;;;;;6927958;28;20623;-89
2021/06/29 06:22:22;;;;;;;2.15;0.90;;;;;;;;;;6870162;28;20057;-88
2021/06/29 06:25:43;;;;;;;4.05;1.25;;;;;;;;;;6894316;28;20077;-88
2021/06/29 06:29:03;;;;;;;4.60;1.00;;;;;;;;;;6893777;28;20116;-89
2021/06/29 06:32:24;;;;;;;1.25;1.10;;;;;;;;;;6894750;28;20045;-87
2021/06/29 06:35:44;;;;;;;4.55;1.23;;;;;;;;;;6884239;28;20405;-88
2021/06/29 06:39:04;;;;;;;1.70;1.00;;;;;;;;;;6884733;28;20077;-89
2021/06/29 06:42:46;;;;;;;3.67;1.50;;;;;;;;;;6879865;28;20509;-88
2021/06/29 06:46:08;;;;;;;1.60;1.00;;;;;;;;;;6908907;28;20089;-89
2021/06/29 06:49:29;;;;;;;2.63;1.17;;;;;;;;;;6925340;28;20921;-85
2021/06/29 06:52:50;;;;;;;1.35;1.00;;;;;;;;;;6923834;28;20049;-86
2021/06/29 06:56:14;;;;;;;2.03;1.67;;;;;;;;;;6906062;28;20583;-87
2021/06/29 06:59:34;;;;;;;2.63;1.17;;;;;;;;;;6899937;28;20137;-88
2021/06/29 07:02:55;;;;;;;5.63;1.10;;;;;;;;;;6901628;28;20054;-87
2021/06/29 07:06:15;;;;;;;9.55;1.73;;;;;;;;;;6886741;28;20054;-87
2021/06/29 07:09:36;;;;;;;5.82;1.15;;;;;;;;;;6880472;28;20042;-86
2021/06/29 07:12:56;;;;;;;3.38;1.40;;;;;;;;;;6884144;28;20050;-87
2021/06/29 07:16:20;;;;;;;3.92;1.35;;;;;;;;;;6910277;28;20069;-87
2021/06/29 07:19:41;;;;;;;17.20;1.65;;;;;;;;;;6913699;28;20152;-86
2021/06/29 07:23:01;;;;;;;12.70;1.85;;;;;;;;;;6931257;28;20050;-87
2021/06/29 07:26:23;;;;;;;5.65;1.50;;;;;;;;;;6921607;28;20479;-87
2021/06/29 07:29:43;;;;;;;7.07;1.60;;;;;;;;;;6899687;28;20132;-87
2021/06/29 07:33:05;;;;;;;9.15;2.13;;;;;;;;;;6911088;28;20057;-87
2021/06/29 07:36:26;;;;;;;3.55;1.73;;;;;;;;;;6893744;28;20360;-87
2021/06/29 07:39:46;;;;;;;11.23;2.13;;;;;;;;;;6892340;28;20058;-87
2021/06/29 07:43:07;;;;;;;7.10;2.10;;;;;;;;;;6925233;28;20140;-87
2021/06/29 07:46:28;;;;;;;6.00;1.67;;;;;;;;;;6903815;28;20058;-87
2021/06/29 07:49:48;;;;;;;4.45;1.80;;;;;;;;;;6907991;28;20197;-87
2021/06/29 07:53:09;;;;;;;8.05;1.83;;;;;;;;;;6911735;28;20050;-87
2021/06/29 07:56:29;;;;;;;4.28;1.83;;;;;;;;;;6922437;28;20111;-87
2021/06/29 07:59:50;;;;;;;6.35;1.75;;;;;;;;;;6919473;28;20050;-85
2021/06/29 08:03:11;;;;;;;9.85;1.83;;;;;;;;;;6919713;28;20145;-86
2021/06/29 08:06:32;;;;;;;5.13;1.90;;;;;;;;;;6918872;28;20468;-86
2021/06/29 08:09:52;;;;;;;12.45;1.88;;;;;;;;;;6897798;28;20064;-87
2021/06/29 08:13:13;;;;;;;3.47;1.83;;;;;;;;;;6924182;28;20049;-86
2021/06/29 08:16:33;;;;;;;7.22;1.58;;;;;;;;;;6912541;28;20195;-87
2021/06/29 08:19:54;;;;;;;3.72;1.50;;;;;;;;;;6915122;28;20129;-87
2021/06/29 08:23:15;;;;;;;4.22;1.90;;;;;;;;;;6926260;28;20128;-86
2021/06/29 08:26:36;;;;;;;9.35;1.83;;;;;;;;;;6916165;28;20057;-83
2021/06/29 08:29:57;;;;;;;8.10;1.77;;;;;;;;;;6921951;28;20072;-83
2021/06/29 08:33:21;;;;;;;10.23;1.50;;;;;;;;;;6920032;28;20061;-84
2021/06/29 08:36:41;;;;;;;6.10;1.52;;;;;;;;;;6898239;28;20439;-83
2021/06/29 08:40:04;;;;;;;4.80;1.63;;;;;;;;;;6915026;28;20552;-87
2021/06/29 08:43:25;;;;;;;5.30;1.70;;;;;;;;;;6918593;28;20045;-85
2021/06/29 08:46:46;;;;;;;7.40;1.88;;;;;;;;;;6886343;28;20054;-86
2021/06/29 08:50:11;;;;;;;3.28;1.40;;;;;;;;;;6909325;28;20137;-86
2021/06/29 08:53:32;;;;;;;2.60;1.38;;;;;;;;;;6920053;28;20081;-87
2021/06/29 08:56:53;;;;;;;2.92;1.40;;;;;;;;;;6929341;28;20136;-84
2021/06/29 09:00:14;;;;;;;4.30;1.67;;;;;;;;;;6924943;28;20038;-85
2021/06/29 09:03:34;;;;;;;6.53;1.50;;;;;;;;;;6919929;28;20381;-86
2021/06/29 09:06:54;;;;;;;3.05;1.40;;;;;;;;;;6897482;28;20058;-85
2021/06/29 09:10:15;;;;;;;4.22;1.60;;;;;;;;;;6929397;28;20156;-84
2021/06/29 09:13:37;;;;;;;7.85;1.70;;;;;;;;;;6910947;28;20150;-85
2021/06/29 09:17:19;;;;;;;4.10;1.40;;;;;;;;;;6910731;28;20586;-87
2021/06/29 09:20:50;;;;;;;3.80;1.45;;;;;;;;;;6905429;28;20491;-86
2021/06/29 09:24:10;;;;;;;4.50;1.40;;;;;;;;;;6906479;28;20399;-85
2021/06/29 09:27:44;;;;;;;3.38;1.42;;;;;;;;;;6909157;28;20529;-86
2021/06/29 09:31:06;;;;;;;1.38;1.10;;;;;;;;;;6929578;28;20450;-86
2021/06/29 09:34:28;;;;;;;5.15;1.67;;;;;;;;;;6937156;28;20041;-86
2021/06/29 09:37:49;;;;;;;3.97;1.42;;;;;;;;;;6934057;28;20049;-86
2021/06/29 09:41:14;;;;;;;2.65;1.48;;;;;;;;;;6924468;28;20049;-85
2021/06/29 09:44:35;;;;;;;6.97;1.85;;;;;;;;;;6936366;28;20054;-86
2021/06/29 09:47:56;;;;;;;8.77;1.80;;;;;;;;;;6895388;28;20058;-86
2021/06/29 09:51:20;;;;;;;5.10;1.60;;;;;;;;;;6895903;28;20073;-85
2021/06/29 09:54:41;;;;;;;4.57;1.25;;;;;;;;;;6907478;28;20136;-88
2021/06/29 09:58:11;;;;;;;4.00;1.45;;;;;;;;;;6924913;28;20061;-86
2021/06/29 10:01:32;;;;;;;7.30;1.40;;;;;;;;;;6908503;28;20143;-85
2021/06/29 10:05:22;;;;;;;5.60;1.30;;;;;;;;;;6915299;28;20057;-85
2021/06/29 10:08:44;;;;;;;2.40;1.13;;;;;;;;;;6884368;28;20061;-85
2021/06/29 10:12:05;;;;;;;1.67;1.27;;;;;;;;;;6885617;28;20424;-85
2021/06/29 10:15:25;;;;;;;1.50;1.00;;;;;;;;;;6902928;28;20507;-85
2021/06/29 10:19:02;;;;;;;2.10;1.30;;;;;;;;;;6883594;28;20129;-85
2021/06/29 10:22:23;;;;;;;4.45;1.60;;;;;;;;;;6918277;28;20061;-83
2021/06/29 10:25:44;;;;;;;7.25;1.30;;;;;;;;;;6904991;28;20046;-84
2021/06/29 10:29:08;;;;;;;3.55;1.13;;;;;;;;;;6905720;28;20068;-82
2021/06/29 10:32:29;;;;;;;3.03;1.30;;;;;;;;;;6901676;28;20401;-82
2021/06/29 10:35:50;;;;;;;3.35;1.13;;;;;;;;;;6913200;28;20112;-82
2021/06/29 10:39:14;;;;;;;2.08;1.40;;;;;;;;;;6899399;28;20041;-82
2021/06/29 10:42:38;;;;;;;3.35;1.33;;;;;;;;;;6905427;28;20057;-82
2021/06/29 10:45:58;;;;;;;1.67;1.20;;;;;;;;;;6897195;28;20560;-82
2021/06/29 10:49:26;;;;;;;2.10;1.10;;;;;;;;;;6913410;28;20042;-83
2021/06/29 10:52:46;;;;;;;3.15;1.27;;;;;;;;;;6931677;28;20419;-82
2021/06/29 10:56:17;;;;;;;1.73;1.10;;;;;;;;;;6934289;28;20076;-82
2021/06/29 10:59:39;;;;;;;3.67;1.40;;;;;;;;;;6912266;28;21030;-82
2021/06/29 11:03:08;;;;;;;3.00;1.42;;;;;;;;;;6893580;28;20115;-83
2021/06/29 11:06:46;;;;;;;0.90;0.90;;;;;;;;;;6894916;28;20056;-83
2021/06/29 11:10:10;;;;;;;1.55;1.27;;;;;;;;;;6919902;28;20050;-82
2021/06/29 11:13:40;;;;;;;2.53;1.20;;;;;;;;;;6909830;28;20068;-83
2021/06/29 11:17:00;;;;;;;1.35;1.10;;;;;;;;;;6920928;28;20050;-84
2021/06/29 11:20:23;;;;;;;2.17;1.05;;;;;;;;;;6901893;28;20053;-83
2021/06/29 11:23:43;;;;;;;2.70;1.27;;;;;;;;;;6920469;28;20050;-83
2021/06/29 11:27:05;;;;;;;2.30;1.23;;;;;;;;;;6929783;28;20113;-83
2021/06/29 11:30:53;;;;;;;1.30;1.00;;;;;;;;;;6925728;28;20045;-83
2021/06/29 11:34:15;;;;;;;1.13;1.03;;;;;;;;;;6908032;28;20503;-83
2021/06/29 11:38:07;;;;;;;3.60;1.52;;;;;;;;;;6931786;28;21357;-83
2021/06/29 11:41:31;;;;;;;2.17;1.10;;;;;;;;;;6927700;28;20480;-83
2021/06/29 11:44:52;;;;;;;2.30;0.98;;;;;;;;;;6935066;28;20072;-83
2021/06/29 11:48:41;;;;;;;1.27;1.17;;;;;;;;;;6931820;28;20049;-83
2021/06/29 11:52:06;;;;;;;1.98;1.10;;;;;;;;;;6916970;28;20050;-84
2021/06/29 11:55:29;;;;;;;1.38;0.88;;;;;;;;;;6931927;28;20041;-84
2021/06/29 11:58:49;;;;;;;1.92;1.10;;;;;;;;;;6897350;28;20042;-84
2021/06/29 12:02:12;;;;;;;1.98;1.10;;;;;;;;;;6914788;28;20052;-84
2021/06/29 12:05:35;;;;;;;4.55;1.00;;;;;;;;;;6880945;28;20038;-84
2021/06/29 12:08:59;;;;;;;0.90;0.90;;;;;;;;;;6906806;28;20409;-85
2021/06/29 12:12:25;;;;;;;1.02;0.98;;;;;;;;;;6913925;28;20047;-85
2021/06/29 12:15:50;;;;;;;1.23;1.10;;;;;;;;;;6896530;28;20058;-85
2021/06/29 12:19:10;;;;;;;1.77;1.00;;;;;;;;;;6914885;28;20153;-86
2021/06/29 12:22:33;;;;;;;1.20;1.00;;;;;;;;;;6916570;28;20045;-88
2021/06/29 12:26:12;;;;;;;7.60;1.13;;;;;;;;;;6914700;28;20057;-87
2021/06/29 12:29:38;;;;;;;2.00;1.10;;;;;;;;;;6912358;28;20203;-86
2021/06/29 12:33:11;;;;;;;1.45;0.85;;;;;;;;;;6909879;28;20058;-84
2021/06/29 12:36:32;;;;;;;3.38;1.17;;;;;;;;;;6913517;28;20050;-84
2021/06/29 12:40:04;;;;;;;2.13;1.30;;;;;;;;;;6911661;28;20065;-84
2021/06/29 12:43:28;;;;;;;0.82;0.80;;;;;;;;;;6912881;28;20050;-84
2021/06/29 12:46:48;;;;;;;0.93;0.90;;;;;;;;;;6908559;28;20415;-84
2021/06/29 12:50:09;;;;;;;1.45;0.93;;;;;;;;;;6914747;28;20506;-85
2021/06/29 12:53:30;;;;;;;1.75;1.00;;;;;;;;;;6908104;28;20141;-86
2021/06/29 12:56:53;;;;;;;2.00;1.27;;;;;;;;;;6910952;28;20507;-85
2021/06/29 13:00:15;;;;;;;2.47;1.05;;;;;;;;;;6900245;28;20053;-85
2021/06/29 13:03:39;;;;;;;1.33;1.10;;;;;;;;;;6908945;28;20492;-86
2021/06/29 13:07:04;;;;;;;1.58;1.00;;;;;;;;;;6914600;28;20058;-86
2021/06/29 13:10:27;;;;;;;2.80;1.10;;;;;;;;;;6925618;28;20056;-88
2021/06/29 13:14:15;;;;;;;3.15;1.00;;;;;;;;;;6890535;28;20125;-88
2021/06/29 13:17:49;;;;;;;1.25;1.00;;;;;;;;;;6894359;28;20392;-88
2021/06/29 13:21:36;;;;;;;1.63;1.10;;;;;;;;;;6902947;28;20041;-85
2021/06/29 13:24:56;;;;;;;3.83;1.30;;;;;;;;;;6909776;28;20452;-85
2021/06/29 13:28:19;;;;;;;1.75;1.02;;;;;;;;;;6962163;23;20495;-86
2021/06/29 13:31:40;;;;;;;2.20;1.10;;;;;;;;;;6960379;28;20168;-84
2021/06/29 13:35:03;;;;;;;1.40;0.93;;;;;;;;;;6950616;28;20053;-85
2021/06/29 13:38:23;;;;;;;2.15;0.98;;;;;;;;;;6958694;28;20051;-84
2021/06/29 13:41:44;;;;;;;1.48;1.00;;;;;;;;;;6958188;28;20042;-84
2021/06/29 13:45:06;;;;;;;1.40;1.00;;;;;;;;;;6957652;28;20179;-85
2021/06/29 13:48:31;;;;;;;2.33;1.00;;;;;;;;;;6955219;28;20090;-84
2021/06/29 13:52:04;;;;;;;3.90;1.00;;;;;;;;;;6947263;28;20045;-86
2021/06/29 13:55:26;;;;;;;3.00;1.00;;;;;;;;;;6965226;28;20084;-85
2021/06/29 13:58:51;;;;;;;1.98;1.10;;;;;;;;;;6957871;28;20049;-85
2021/06/29 14:02:11;;;;;;;1.33;1.10;;;;;;;;;;6921321;28;20056;-85
2021/06/29 14:05:33;;;;;;;1.65;1.15;;;;;;;;;;6960060;28;20037;-84
2021/06/29 14:09:09;;;;;;;1.73;1.20;;;;;;;;;;6963277;28;20068;-86
2021/06/29 14:12:29;;;;;;;1.55;1.00;;;;;;;;;;6957005;28;20102;-86
2021/06/29 14:15:50;;;;;;;2.05;1.30;;;;;;;;;;6965256;28;20072;-85
2021/06/29 14:19:10;;;;;;;1.95;0.98;;;;;;;;;;6961947;28;20049;-84
2021/06/29 14:22:30;;;;;;;1.20;1.10;;;;;;;;;;6953699;28;20050;-85
2021/06/29 14:25:51;;;;;;;2.15;1.15;;;;;;;;;;6934910;28;20045;-84
2021/06/29 14:29:11;;;;;;;1.00;0.98;;;;;;;;;;6909138;28;20080;-88
2021/06/29 14:32:32;;;;;;;1.13;1.00;;;;;;;;;;6949943;28;20087;-87
2021/06/29 14:35:53;;;;;;;2.28;1.08;;;;;;;;;;6950248;28;20407;-86
2021/06/29 14:39:13;;;;;;;2.15;1.10;;;;;;;;;;6938175;28;20685;-88
2021/06/29 14:42:35;;;;;;;2.40;1.17;;;;;;;;;;6951332;28;20170;-87
2021/06/29 14:45:55;;;;;;;1.52;1.05;;;;;;;;;;6932431;28;20053;-86
2021/06/29 14:49:16;;;;;;;2.33;1.30;;;;;;;;;;6936114;28;20408;-85
2021/06/29 14:52:36;;;;;;;2.35;1.40;;;;;;;;;;6958247;28;20040;-84
2021/06/29 14:55:57;;;;;;;2.28;1.02;;;;;;;;;;6965737;28;20132;-83
2021/06/29 14:59:17;;;;;;;1.05;0.88;;;;;;;;;;6961797;28;20050;-84
2021/06/29 15:02:39;;;;;;;4.97;1.20;;;;;;;;;;6929518;28;20058;-84
2021/06/29 15:05:59;;;;;;;1.30;1.00;;;;;;;;;;6936033;28;20050;-86
2021/06/29 15:09:20;;;;;;;1.70;1.00;;;;;;;;;;6941851;28;20044;-87
2021/06/29 15:12:42;;;;;;;2.22;1.00;;;;;;;;;;6933779;28;20066;-87
2021/06/29 15:16:02;;;;;;;2.10;1.13;;;;;;;;;;6920533;28;21304;-85
2021/06/29 15:19:23;;;;;;;1.73;1.02;;;;;;;;;;6937918;28;20046;-85
2021/06/29 15:22:43;;;;;;;1.80;1.10;;;;;;;;;;6963158;28;20084;-84
2021/06/29 15:26:04;;;;;;;1.50;1.08;;;;;;;;;;6943113;28;20065;-84
2021/06/29 15:29:25;;;;;;;3.50;1.20;;;;;;;;;;6948528;28;20045;-84
2021/06/29 15:32:46;;;;;;;1.35;1.05;;;;;;;;;;6960474;28;20411;-83
2021/06/29 15:36:06;;;;;;;4.93;0.95;;;;;;;;;;6962234;28;20503;-85
2021/06/29 15:39:27;;;;;;;4.72;1.00;;;;;;;;;;6966125;28;20053;-83
2021/06/29 15:42:48;;;;;;;3.63;1.15;;;;;;;;;;6966345;28;20616;-84
2021/06/29 15:46:09;;;;;;;11.00;1.52;;;;;;;;;;6965493;28;20041;-83
2021/06/29 15:49:29;;;;;;;13.50;1.80;;;;;;;;;;6965499;28;20045;-84
2021/06/29 15:52:50;;;;;;;6.03;1.95;;;;;;;;;;6965160;28;20563;-84
2021/06/29 15:56:10;;;;;;;3.92;1.67;;;;;;;;;;6965311;28;20128;-85
2021/06/29 15:59:31;;;;;;;3.78;1.65;;;;;;;;;;6963384;28;20033;-84
2021/06/29 16:02:51;;;;;;;7.68;1.67;;;;;;;;;;6951082;28;20204;-85
2021/06/29 16:06:12;;;;;;;5.25;1.90;;;;;;;;;;6968924;28;20563;-84
2021/06/29 16:09:32;;;;;;;6.65;1.52;;;;;;;;;;6971834;28;20146;-85
2021/06/29 16:12:52;;;;;;;6.13;1.55;;;;;;;;;;6950500;28;20140;-86
2021/06/29 16:16:13;;;;;;;5.15;1.65;;;;;;;;;;6966408;28;20048;-84
2021/06/29 16:19:33;;;;;;;5.47;1.90;;;;;;;;;;6970206;28;20127;-83
2021/06/29 16:22:54;;;;;;;3.35;1.50;;;;;;;;;;6947112;28;20048;-85
2021/06/29 16:26:14;;;;;;;6.55;1.80;;;;;;;;;;6948897;28;20136;-84
2021/06/29 16:29:38;;;;;;;2.05;1.50;;;;;;;;;;6969280;28;20049;-84
2021/06/29 16:32:58;;;;;;;2.63;1.38;;;;;;;;;;6940843;28;20068;-82
2021/06/29 16:36:19;;;;;;;5.70;1.70;;;;;;;;;;6942251;28;20145;-85
2021/06/29 16:39:39;;;;;;;5.25;1.80;;;;;;;;;;6941567;28;20053;-84
2021/06/29 16:43:00;;;;;;;3.40;1.38;;;;;;;;;;6942261;28;20096;-84
2021/06/29 16:46:20;;;;;;;3.65;1.77;;;;;;;;;;6939318;28;20147;-84
2021/06/29 16:49:41;;;;;;;6.68;1.48;;;;;;;;;;6954113;28;21526;-84
2021/06/29 16:53:02;;;;;;;2.58;1.27;;;;;;;;;;6950398;28;20037;-84
2021/06/29 16:56:24;;;;;;;4.43;2.10;;;;;;;;;;6956631;28;20053;-85
2021/06/29 16:59:44;;;;;;;3.40;1.30;;;;;;;;;;6970580;28;20052;-84
2021/06/29 17:03:04;;;;;;;7.15;1.60;;;;;;;;;;6937356;28;20143;-85
2021/06/29 17:06:25;;;;;;;3.63;1.30;;;;;;;;;;6942755;28;20435;-89
2021/06/29 17:09:45;;;;;;;5.90;1.40;;;;;;;;;;6933823;28;20049;-88
2021/06/29 17:13:06;;;;;;;4.03;1.55;;;;;;;;;;6953515;28;20053;-87
2021/06/29 17:16:26;;;;;;;1.83;1.20;;;;;;;;;;6968179;28;20045;-90
2021/06/29 17:19:47;;;;;;;2.67;1.35;;;;;;;;;;6952501;28;20048;-83
2021/06/29 17:23:11;;;;;;;2.30;1.25;;;;;;;;;;6968584;28;20142;-82
2021/06/29 17:26:31;;;;;;;3.00;1.48;;;;;;;;;;6968393;28;20140;-83
2021/06/29 17:29:55;;;;;;;3.40;1.50;;;;;;;;;;6956611;28;20050;-83
2021/06/29 17:33:15;;;;;;;4.55;1.60;;;;;;;;;;6915393;28;20058;-84
2021/06/29 17:36:36;;;;;;;4.70;1.88;;;;;;;;;;6933927;28;20060;-84
2021/06/29 17:39:56;;;;;;;3.97;1.40;;;;;;;;;;6929073;28;20046;-84
2021/06/29 17:43:17;;;;;;;4.03;1.55;;;;;;;;;;6961479;28;20056;-83
2021/06/29 17:46:37;;;;;;;5.05;1.70;;;;;;;;;;6937861;28;20065;-85
2021/06/29 17:49:58;;;;;;;3.42;1.70;;;;;;;;;;6931573;28;20050;-84
2021/06/29 17:53:18;;;;;;;3.50;1.40;;;;;;;;;;6944203;28;20037;-84
2021/06/29 17:56:39;;;;;;;6.72;1.95;;;;;;;;;;6944053;28;20046;-84
2021/06/29 18:00:00;;;;;;;2.65;1.73;;;;;;;;;;6944030;28;20037;-84
2021/06/29 18:03:20;;;;;;;2.05;1.60;;;;;;;;;;6934842;28;20550;-85
2021/06/29 18:06:41;;;;;;;2.00;1.35;;;;;;;;;;6941924;28;20046;-84
2021/06/29 18:10:02;;;;;;;2.03;1.30;;;;;;;;;;6949091;28;20142;-84
2021/06/29 18:13:22;;;;;;;2.30;1.50;;;;;;;;;;6940850;28;20092;-85
2021/06/29 18:16:43;;;;;;;2.13;1.50;;;;;;;;;;6956684;28;20051;-85
2021/06/29 18:20:04;;;;;;;2.53;1.20;;;;;;;;;;6938104;28;20048;-85
2021/06/29 18:23:24;;;;;;;3.53;1.80;;;;;;;;;;6936488;28;20049;-85
2021/06/29 18:26:45;;;;;;;4.10;1.77;;;;;;;;;;6949766;28;20098;-85
2021/06/29 18:30:07;;;;;;;2.35;1.48;;;;;;;;;;6932809;28;20068;-86
2021/06/29 18:33:27;;;;;;;4.70;1.52;;;;;;;;;;6937993;28;20448;-85
2021/06/29 18:36:48;;;;;;;4.32;1.88;;;;;;;;;;6941539;28;20470;-85
2021/06/29 18:40:10;;;;;;;2.97;1.50;;;;;;;;;;6941659;28;20053;-85
2021/06/29 18:43:31;;;;;;;3.25;1.25;;;;;;;;;;6928373;28;20057;-86
2021/06/29 18:46:51;;;;;;;4.57;1.33;;;;;;;;;;6943548;28;20424;-85
2021/06/29 18:50:13;;;;;;;3.55;1.38;;;;;;;;;;6925884;28;20483;-85
2021/06/29 18:53:34;;;;;;;4.70;1.52;;;;;;;;;;6940260;28;20060;-85
2021/06/29 18:56:54;;;;;;;3.70;1.73;;;;;;;;;;6965413;28;20060;-86
2021/06/29 19:00:18;;;;;;;5.53;1.40;;;;;;;;;;6935162;28;20517;-86
2021/06/29 19:03:38;;;;;;;3.55;1.33;;;;;;;;;;6927665;28;20042;-87
2021/06/29 19:06:59;;;;;;;4.90;1.63;;;;;;;;;;6960879;28;20059;-86
2021/06/29 19:10:20;;;;;;;3.67;1.35;;;;;;;;;;6965417;28;20506;-86
2021/06/29 19:13:41;;;;;;;5.70;1.30;;;;;;;;;;6971150;28;20118;-86
2021/06/29 19:17:01;;;;;;;3.78;1.70;;;;;;;;;;6966169;28;20045;-86
2021/06/29 19:20:22;;;;;;;2.22;1.20;;;;;;;;;;6934117;28;20045;-87
2021/06/29 19:23:42;;;;;;;1.80;1.27;;;;;;;;;;6940186;28;20499;-86
2021/06/29 19:27:03;;;;;;;2.78;1.38;;;;;;;;;;6935587;28;20045;-86
2021/06/29 19:30:24;;;;;;;1.73;1.20;;;;;;;;;;6950513;28;20056;-86
2021/06/29 19:33:44;;;;;;;4.68;1.40;;;;;;;;;;6964824;28;20140;-85
2021/06/29 19:37:05;;;;;;;3.42;1.50;;;;;;;;;;6967714;28;20052;-85
2021/06/29 19:40:25;;;;;;;2.05;1.23;;;;;;;;;;6971083;28;20049;-86
2021/06/29 19:43:46;;;;;;;2.17;1.30;;;;;;;;;;6971120;28;20118;-87
2021/06/29 19:47:07;;;;;;;4.88;1.65;;;;;;;;;;6965211;28;20499;-86
2021/06/29 19:50:27;;;;;;;3.58;1.38;;;;;;;;;;6971015;28;20080;-86
2021/06/29 19:53:55;;;;;;;4.53;1.42;;;;;;;;;;6969131;28;20041;-88
2021/06/29 19:57:15;;;;;;;3.63;1.75;;;;;;;;;;6967994;28;20131;-87
2021/06/29 20:00:36;;;;;;;5.00;1.42;;;;;;;;;;6969377;28;20045;-86
2021/06/29 20:03:57;;;;;;;3.17;1.38;;;;;;;;;;6952373;28;20052;-86
2021/06/29 20:07:17;;;;;;;3.85;1.60;;;;;;;;;;6944636;28;20106;-89
2021/06/29 20:10:38;;;;;;;5.03;1.95;;;;;;;;;;6926154;28;20053;-88
2021/06/29 20:13:58;;;;;;;11.55;1.88;;;;;;;;;;6924960;28;20510;-90
2021/06/29 20:22:19;;;;;;;4.45;1.60;;;;;;;;;;6965346;28;20418;-90
2021/06/29 20:25:39;;;;;;;6.15;2.10;;;;;;;;;;6954496;28;20056;-88
2021/06/29 20:29:00;;;;;;;2.53;1.60;;;;;;;;;;6957662;28;20072;-88
2021/06/29 20:32:21;;;;;;;4.22;1.50;;;;;;;;;;6960258;28;20056;-88
2021/06/29 20:35:42;;;;;;;3.88;1.63;;;;;;;;;;6966044;28;20049;-89
2021/06/29 20:39:04;;;;;;;7.18;1.80;;;;;;;;;;6968898;28;20099;-89
2021/06/29 20:42:27;;;;;;;6.53;1.77;;;;;;;;;;6964383;28;20045;-87
2021/06/29 20:45:47;;;;;;;7.50;1.85;;;;;;;;;;6961355;28;20071;-87